Terminal Aerodrome Forecast
Issued by NWS

Home | Current Version | Previous Version | Text Only | Print | Product List | Glossary On
Versions: 1 2 3 4 5 6 7 8 9 10 11 12 13 14 15 16 17 18
000
FTUS43 KDTX 292008 AAB
TAFDET
TAF AMD
KDET 292008Z 2920/3018 31011G18KT 5SM -SHSN SCT012 OVC022
      TEMPO 2920/2922 1SM -SN OVC012
     FM292200 30012G22KT P6SM OVC018
     FM300400 31017G28KT P6SM -SHSN OVC025
     FM300900 32015G25KT P6SM BKN035=

USA.gov is the U.S. government's official web portal to all federal, state and local government web resources and services.